Admire, KS

2:16 PM CDT on August 30, 2014 (GMT -0500)
Billard Municipal | Change Station
CLOSE
Current Station
Airport
Location: Topeka,
Elevation: 886 ft
Nearby Weather Stations

Elev 886 ft 39.07 °N, 95.63 °W | Updated 23 minutes ago

Partly Cloudy
Partly Cloudy
89 °F
Feels Like 92 °F
N
5
Wind Variable Wind from Variable

Today
High -- | Low -- °F
--% Chance of Precip.
Yesterday
High -- | Low -- °F
Precip. -- in
6:51 AM 7:57 PM
Waxing Crescent, 24% visible
Pressure 29.89 in
Visibility 10.0 miles
Clouds Few 4800 ft
Heat Index 92 °F
Dew Point 67 °F
Humidity 48%
Rainfall 0.00 in
Snow Depth Not available.
UV 9 out of 12
Pollen 10.30 out of 12
Air Quality Not available.
Flu Activity Not available.
METAR KTOP 301853Z VRB04KT 10SM FEW048 32/19 A2992 RMK AO2 SLP121 T03170194

More Conditions Fewer Conditions

Pressure 29.89 in
Visibility 10.0 miles
Clouds Few 4800 ft
Heat Index 92 °F
Dew Point 67 °F
Humidity 48%
Rainfall 0.00 in
Snow Depth Not available.
UV 9 out of 12
Pollen 10.30 out of 12
Air Quality Not available.
Flu Activity Not available.
METAR KTOP 301853Z VRB04KT 10SM FEW048 32/19 A2992 RMK AO2 SLP121 T03170194

More Conditions Fewer Conditions

10-Day Weather Forecast

Almanac

Astronomy

Aug. 30, 2014 Rise Set
Actual Time 6:51 AM CDT 7:57 PM CDT
Civil Twilight 6:24 AM CDT 8:24 PM CDT
Nautical Twilight 5:51 AM CDT 8:57 PM CDT
Astronomical Twilight 5:18 AM CDT 9:30 PM CDT
Moon 11:36 AM CDT 10:36 PM CDT
Length of Visible Light 14h 00m
Length of Day
13h 05m
Tomorrow will be 2m 23s shorter.
Waxing Crescent, 24% of the Moon is Illuminated
Today
Waxing Crescent
Sep 2
First Quarter
Sep 8
Full
Sep 15
Last Quarter
Sep 24
New

Today's Extremes

State Highs State Lows

Community

WunderPhotos

Upload Photos

1,748,596 photos uploaded!

WunderBlogs® & News

Nearby

Snow Depth

Station Depth Elevation
No new snow has been reported.

Earthquake Activity

City Distance Mag. Time & Date
No recent earthquake activity has been reported nearby.
Minimum magnitude displayed is 2.5.

Coastal Water Temperatures

Place Temperature
No Stations Reporting

Nearby Weather Stations